Galeao, Brazil

5:41 AM BRST on February 11, 2016 (GMT -0200)
Galeao-Antonio C Jobim International | | Change Station
CLOSE
Current Station
Airport
Location: Galeao,
Elevation: 20 ft
Nearby Weather Stations

Elev 20 ft 22.81 °S, 43.24 °W | Updated 41 minutes ago

Scattered Clouds
Scattered Clouds
82 °F
Feels Like 88 °F
N
8
Wind Variable Wind from West

Today
High -- | Low -- °F
--% Chance of Precip.
Yesterday
High -- | Low -- °F
Precip. -- in
Pressure 29.86 in
Visibility 6.2 miles
Clouds Few 2000 ft
Scattered Clouds 4000 ft
Heat Index 88 °F
Dew Point 73 °F
Humidity 74%
Rainfall 0.00 in
Snow Depth Not available.
6:39 AM 7:35 PM
Waxing Crescent, 10% visible
METAR SBGL 110700Z 26007KT 9999 FEW020 SCT040 28/23 Q1011
Pressure 29.86 in
Visibility 6.2 miles
Clouds Few 2000 ft
Scattered Clouds 4000 ft
Heat Index 88 °F
Dew Point 73 °F
Humidity 74%
Rainfall 0.00 in
Snow Depth Not available.
6:39 AM 7:35 PM
Waxing Crescent, 10% visible
METAR SBGL 110700Z 26007KT 9999 FEW020 SCT040 28/23 Q1011

10-Day Weather Forecast

No radar image for this location.
×

Almanac

Astronomy

Feb. 11, 2016 Rise Set
Actual Time
Civil Twilight
Nautical Twilight
Astronomical Twilight
Moon
Length of Visible Light
Length of Day
Tomorrow will be .
, % of the Moon is Illuminated

Today's Extremes

Country Highs Country Lows

Community

WunderPhotos

Upload Photos

1,892,030 photos uploaded!

WunderBlog® & News

Nearby

Air Quality

  Air Quality AQ Index Pollutant
Not available.

Snow Depth

Station Depth Elevation

Earthquake Activity

City Distance Mag. Time & Date
Minimum magnitude displayed is 2.5.

Coastal Water Temperatures

Place Temperature

Stations

Nearby Weather Stations

Station Location Temp. Windchill Dew Point Humidity Wind Precip. Elev Updated Type